createdAt,value
2023-01-13T00:03:36.436Z,9.58
2023-01-13T00:09:38.541Z,9.57
2023-01-13T00:15:40.533Z,9.51
2023-01-13T00:21:42.471Z,9.59
2023-01-13T00:27:44.415Z,9.30
2023-01-13T00:33:49.156Z,9.52
2023-01-13T00:39:52.796Z,9.53
2023-01-13T00:45:55.477Z,9.56
2023-01-13T00:51:57.418Z,9.58
2023-01-13T00:58:03.505Z,9.61
2023-01-13T01:04:05.930Z,9.61
2023-01-13T01:10:08.765Z,9.78
2023-01-13T01:16:17.511Z,9.82
2023-01-13T01:22:19.436Z,9.80
2023-01-13T01:28:21.412Z,9.91
2023-01-13T01:34:23.331Z,9.82
2023-01-13T01:40:27.690Z,10.03
2023-01-13T01:46:43.820Z,9.97
2023-01-13T01:52:56.665Z,10.14
2023-01-13T01:58:58.639Z,9.98
2023-01-13T02:05:01.415Z,9.96
2023-01-13T02:11:03.359Z,10.10
2023-01-13T02:17:53.286Z,9.98
2023-01-13T02:24:51.963Z,10.08
2023-01-13T02:31:21.062Z,9.95
2023-01-13T02:37:31.784Z,10.04
2023-01-13T02:43:57.160Z,10.11
2023-01-13T02:50:13.845Z,9.84
2023-01-13T02:56:17.556Z,10.05
2023-01-13T03:02:21.477Z,9.73
2023-01-13T03:09:00.174Z,9.82
2023-01-13T03:15:24.415Z,10.03
2023-01-13T03:21:31.121Z,10.08
2023-01-13T03:27:35.181Z,10.09
2023-01-13T03:33:53.616Z,10.02
2023-01-13T03:40:03.877Z,9.94
2023-01-13T03:46:19.760Z,9.82
2023-01-13T03:52:32.172Z,9.93
2023-01-13T03:58:41.314Z,9.80
2023-01-13T04:04:50.623Z,9.92
2023-01-13T04:11:19.697Z,9.36
2023-01-13T04:17:22.191Z,8.90
2023-01-13T04:23:25.012Z,8.63
2023-01-13T04:29:27.467Z,8.53
2023-01-13T04:35:29.475Z,8.45
2023-01-13T04:41:54.387Z,8.25
2023-01-13T04:47:56.369Z,8.46
2023-01-13T04:53:58.267Z,8.37
2023-01-13T05:00:00.404Z,8.52
2023-01-13T05:06:02.679Z,8.32
2023-01-13T05:12:23.159Z,8.41
2023-01-13T05:18:25.506Z,8.03
2023-01-13T05:24:45.722Z,7.96
2023-01-13T05:30:52.566Z,7.92
2023-01-13T05:36:54.547Z,7.98
2023-01-13T05:43:24.528Z,7.77
2023-01-13T05:49:26.481Z,7.62
2023-01-13T05:55:28.370Z,7.47
2023-01-13T06:01:30.330Z,7.56
2023-01-13T06:07:32.309Z,7.95
2023-01-13T06:13:34.318Z,7.80
2023-01-13T06:19:36.687Z,8.08
2023-01-13T06:26:12.198Z,7.67
2023-01-13T06:32:28.172Z,7.57
2023-01-13T06:38:36.061Z,7.48
2023-01-13T06:44:38.096Z,7.50
2023-01-13T06:50:40.022Z,7.32
2023-01-13T06:56:42.018Z,7.34
2023-01-13T07:02:43.977Z,7.45
2023-01-13T07:08:45.879Z,7.65
2023-01-13T07:15:06.274Z,7.69
2023-01-13T07:21:10.856Z,7.68
2023-01-13T07:27:13.055Z,7.92
2023-01-13T07:33:14.966Z,7.93
2023-01-13T07:39:16.935Z,7.86
2023-01-13T07:45:18.812Z,7.84
2023-01-13T07:51:20.682Z,7.86
2023-01-13T07:57:22.564Z,8.15
2023-01-13T08:03:25.028Z,7.79
2023-01-13T08:09:26.935Z,7.95
2023-01-13T08:15:29.782Z,8.03
2023-01-13T08:21:31.686Z,8.18
2023-01-13T08:27:34.236Z,8.31
2023-01-13T08:33:36.547Z,8.36
2023-01-13T08:39:38.539Z,8.47
2023-01-13T08:45:40.433Z,8.51
2023-01-13T08:51:42.311Z,8.53
2023-01-13T08:57:44.481Z,8.61
2023-01-13T09:03:46.407Z,8.69
2023-01-13T09:09:48.340Z,8.56
2023-01-13T09:15:51.640Z,8.91
2023-01-13T09:21:55.998Z,8.91
2023-01-13T09:27:58.332Z,8.92
2023-01-13T09:34:24.301Z,9.27
2023-01-13T09:40:26.296Z,9.24
2023-01-13T09:46:44.511Z,9.49
2023-01-13T09:52:46.654Z,9.39
2023-01-13T09:58:48.724Z,9.24
2023-01-13T10:05:13.116Z,9.17
2023-01-13T10:11:48.216Z,9.27
2023-01-13T10:18:33.354Z,9.03
2023-01-13T10:25:20.356Z,9.07
2023-01-13T10:31:24.287Z,9.16
2023-01-13T10:37:28.523Z,9.11
2023-01-13T10:43:31.496Z,9.17
2023-01-13T10:49:38.690Z,9.18
2023-01-13T10:55:41.318Z,9.03
2023-01-13T11:02:01.148Z,9.02
2023-01-13T11:08:05.626Z,9.12
2023-01-13T11:14:36.849Z,9.19
2023-01-13T11:20:42.585Z,9.33
2023-01-13T11:26:53.287Z,9.28
2023-01-13T11:33:04.551Z,9.29
2023-01-13T11:39:47.709Z,9.21
2023-01-13T11:45:58.345Z,9.52
2023-01-13T11:52:16.503Z,9.33
2023-01-13T11:58:50.323Z,9.46
2023-01-13T12:04:55.823Z,8.81
2023-01-13T12:12:06.360Z,8.08
2023-01-13T12:18:23.112Z,7.74
2023-01-13T12:24:55.804Z,7.88
2023-01-13T12:31:03.009Z,8.45
2023-01-13T12:37:44.884Z,8.73
2023-01-13T12:44:08.457Z,8.49
2023-01-13T12:50:22.632Z,8.24
2023-01-13T12:56:27.509Z,8.59
2023-01-13T13:02:41.987Z,8.43
2023-01-13T13:09:17.925Z,8.74
2023-01-13T13:15:35.508Z,9.18
2023-01-13T13:22:14.594Z,9.28
2023-01-13T13:28:19.095Z,9.51
2023-01-13T13:34:50.197Z,9.22
2023-01-13T13:41:10.814Z,9.14
2023-01-13T13:47:12.735Z,8.88
2023-01-13T13:53:14.811Z,8.91
2023-01-13T13:59:26.750Z,8.83
2023-01-13T14:05:29.898Z,8.96
2023-01-13T14:11:33.653Z,8.62
2023-01-13T14:17:35.783Z,8.54
2023-01-13T14:23:37.711Z,8.22
2023-01-13T14:29:39.985Z,7.83
2023-01-13T14:36:04.667Z,7.71
2023-01-13T14:42:16.268Z,7.72
2023-01-13T14:48:18.152Z,7.77
2023-01-13T14:54:45.143Z,7.69
2023-01-13T15:00:47.497Z,7.41
2023-01-13T15:06:53.212Z,6.93
2023-01-13T15:12:57.960Z,6.76
2023-01-13T15:18:59.832Z,6.83
2023-01-13T15:25:01.730Z,6.82
2023-01-13T15:31:03.922Z,6.90
2023-01-13T15:37:08.653Z,7.04
2023-01-13T15:43:41.495Z,7.22
2023-01-13T15:49:45.251Z,7.26
2023-01-13T15:55:54.329Z,7.41
2023-01-13T16:01:56.227Z,7.49
2023-01-13T16:07:58.305Z,7.72
2023-01-13T16:14:00.248Z,7.40
2023-01-13T16:20:02.367Z,7.40
2023-01-13T16:26:24.716Z,7.19
2023-01-13T16:32:26.613Z,7.00
2023-01-13T16:38:28.534Z,6.93
2023-01-13T16:44:30.514Z,6.95
2023-01-13T16:50:42.946Z,6.84
2023-01-13T16:56:45.215Z,7.25
2023-01-13T17:02:47.473Z,7.15
2023-01-13T17:08:49.472Z,7.08
2023-01-13T17:14:51.369Z,7.08
2023-01-13T17:20:53.253Z,7.16
2023-01-13T17:26:55.237Z,7.16
2023-01-13T17:32:57.328Z,7.09
2023-01-13T17:38:59.388Z,7.38
2023-01-13T17:45:01.258Z,7.40
2023-01-13T17:51:06.782Z,7.34
2023-01-13T17:57:08.843Z,7.54
2023-01-13T18:03:12.104Z,7.49
2023-01-13T18:09:14.550Z,7.42
2023-01-13T18:15:16.502Z,7.54
2023-01-13T18:21:39.158Z,7.63
2023-01-13T18:27:41.708Z,7.67
2023-01-13T18:33:43.708Z,7.54
2023-01-13T18:39:45.656Z,7.34
2023-01-13T18:45:51.345Z,7.21
2023-01-13T18:51:53.402Z,7.35
2023-01-13T18:57:56.529Z,7.40
2023-01-13T19:04:03.799Z,7.36
2023-01-13T19:10:09.546Z,7.63
2023-01-13T19:16:11.560Z,7.54
2023-01-13T19:22:20.305Z,7.85
2023-01-13T19:28:22.347Z,7.86
2023-01-13T19:34:25.350Z,7.93
2023-01-13T19:40:27.261Z,7.99
2023-01-13T19:46:29.154Z,7.78
2023-01-13T19:52:32.356Z,7.63
2023-01-13T19:58:34.309Z,7.84
2023-01-13T20:04:38.481Z,7.61
2023-01-13T20:10:41.324Z,7.87
2023-01-13T20:16:43.258Z,7.88
2023-01-13T20:22:45.186Z,7.79
2023-01-13T20:28:47.631Z,7.76
2023-01-13T20:34:49.519Z,7.80
2023-01-13T20:41:21.688Z,7.89
2023-01-13T20:47:23.715Z,7.68
2023-01-13T20:53:25.681Z,7.39
2023-01-13T20:59:27.563Z,7.37
2023-01-13T21:05:29.539Z,7.44
2023-01-13T21:11:50.343Z,7.48
2023-01-13T21:18:10.980Z,7.65
2023-01-13T21:24:14.003Z,7.64
2023-01-13T21:30:17.593Z,7.58
2023-01-13T21:36:19.547Z,7.72
2023-01-13T21:42:40.004Z,7.73
2023-01-13T21:48:41.888Z,7.91
2023-01-13T21:55:02.217Z,7.85
2023-01-13T22:01:04.416Z,7.78
2023-01-13T22:07:06.816Z,7.76
2023-01-13T22:13:29.275Z,7.77
2023-01-13T22:19:31.260Z,7.54
2023-01-13T22:25:33.152Z,7.36
2023-01-13T22:31:35.194Z,7.44
2023-01-13T22:37:37.903Z,7.39
2023-01-13T22:43:40.917Z,7.31
2023-01-13T22:49:47.518Z,7.32
2023-01-13T22:55:57.425Z,7.23
2023-01-13T23:01:59.317Z,7.35
2023-01-13T23:08:01.233Z,7.35
2023-01-13T23:14:06.588Z,7.43
2023-01-13T23:20:09.640Z,7.37
2023-01-13T23:26:12.503Z,7.23
2023-01-13T23:32:14.379Z,7.40
2023-01-13T23:38:16.296Z,7.38
2023-01-13T23:44:18.180Z,7.26
2023-01-13T23:50:20.278Z,7.32
2023-01-13T23:56:28.946Z,7.15
